createdAt,value
2018-06-17T00:00:02.825Z,15.5
2018-06-17T00:05:02.662Z,15.3
2018-06-17T00:10:03.330Z,15.1
2018-06-17T00:15:02.892Z,15.3
2018-06-17T00:20:02.483Z,15.3
2018-06-17T00:25:03.120Z,15.1
2018-06-17T00:30:02.695Z,15.1
2018-06-17T00:35:03.269Z,15.0
2018-06-17T00:40:02.870Z,15.1
2018-06-17T00:45:02.492Z,15.0
2018-06-17T00:50:03.109Z,15.0
2018-06-17T00:55:02.695Z,14.6
2018-06-17T01:00:03.322Z,14.6
2018-06-17T01:05:02.910Z,14.6
2018-06-17T01:10:02.546Z,14.6
2018-06-17T01:15:03.173Z,14.8
2018-06-17T01:20:02.721Z,15.0
2018-06-17T01:25:03.339Z,15.0
2018-06-17T01:30:02.899Z,15.0
2018-06-17T01:35:02.527Z,14.8
2018-06-17T01:40:03.134Z,14.8
2018-06-17T01:45:02.706Z,14.6
2018-06-17T01:50:03.326Z,14.6
2018-06-17T01:55:02.891Z,14.8
2018-06-17T02:00:02.542Z,15.0
2018-06-17T02:05:03.184Z,15.0
2018-06-17T02:10:02.799Z,15.0
2018-06-17T02:15:03.388Z,15.0
2018-06-17T02:20:02.991Z,15.0
2018-06-17T02:25:02.608Z,15.0
2018-06-17T02:30:03.220Z,15.1
2018-06-17T02:35:02.759Z,15.1
2018-06-17T02:40:03.403Z,15.1
2018-06-17T02:45:03.015Z,15.1
2018-06-17T02:50:02.638Z,15.1
2018-06-17T02:55:03.304Z,15.1
2018-06-17T03:00:02.976Z,15.1
2018-06-17T03:05:02.603Z,15.1
2018-06-17T03:10:03.273Z,15.1
2018-06-17T03:15:02.820Z,15.1
2018-06-17T03:20:02.479Z,15.1
2018-06-17T03:25:03.103Z,15.1
2018-06-17T03:30:02.648Z,15.1
2018-06-17T03:35:03.290Z,15.1
2018-06-17T03:40:02.924Z,15.0
2018-06-17T03:45:02.579Z,14.8
2018-06-17T03:50:03.243Z,14.6
2018-06-17T03:55:02.771Z,14.5
2018-06-17T04:00:02.387Z,14.5
2018-06-17T04:05:03.048Z,14.5
2018-06-17T04:10:02.684Z,14.5
2018-06-17T04:15:03.276Z,14.6
2018-06-17T04:20:02.921Z,14.6
2018-06-17T04:25:02.580Z,14.6
2018-06-17T04:30:03.261Z,14.8
2018-06-17T04:35:02.832Z,15.0
2018-06-17T04:40:02.458Z,15.0
2018-06-17T04:45:03.017Z,15.1
2018-06-17T04:50:03.195Z,15.1
2018-06-17T04:55:02.806Z,15.3
2018-06-17T05:00:03.661Z,15.3
2018-06-17T05:05:02.617Z,15.5
2018-06-17T05:10:03.313Z,15.3
2018-06-17T05:15:02.915Z,15.5
2018-06-17T05:20:02.527Z,15.6
2018-06-17T05:25:03.113Z,15.8
2018-06-17T05:30:02.679Z,15.8
2018-06-17T05:35:03.293Z,15.8
2018-06-17T05:40:02.900Z,15.8
2018-06-17T05:45:02.456Z,15.8
2018-06-17T05:50:03.017Z,15.8
2018-06-17T05:55:02.621Z,16.0
2018-06-17T06:00:03.213Z,15.8
2018-06-17T06:05:02.794Z,16.0
2018-06-17T06:10:02.496Z,16.0
2018-06-17T06:15:03.080Z,16.3
2018-06-17T06:20:02.612Z,16.3
2018-06-17T06:25:03.271Z,16.2
2018-06-17T06:30:02.878Z,16.7
2018-06-17T06:35:02.518Z,16.7
2018-06-17T06:40:03.139Z,16.6
2018-06-17T06:45:02.704Z,16.7
2018-06-17T06:50:03.345Z,16.7
2018-06-17T06:55:03.324Z,16.7
2018-06-17T07:00:03.348Z,16.7
2018-06-17T07:05:02.973Z,16.3
2018-06-17T07:10:02.716Z,16.7
2018-06-17T07:15:02.752Z,17.2
2018-06-17T07:20:03.398Z,17.5
2018-06-17T07:25:03.097Z,17.8
2018-06-17T07:30:03.019Z,17.8
2018-06-17T07:35:02.686Z,17.7
2018-06-17T07:40:03.314Z,17.8
2018-06-17T07:45:02.879Z,18.2
2018-06-17T07:50:02.486Z,18.6
2018-06-17T07:55:03.079Z,17.8
2018-06-17T08:00:02.681Z,18.2
2018-06-17T08:05:03.315Z,18.6
2018-06-17T08:10:02.959Z,18.6
2018-06-17T08:15:02.526Z,18.7
2018-06-17T08:20:03.124Z,18.2
2018-06-17T08:25:02.732Z,18.2
2018-06-17T08:30:03.723Z,18.8
2018-06-17T08:35:03.323Z,18.8
2018-06-17T08:40:03.000Z,18.5
2018-06-17T08:45:02.644Z,18.2
2018-06-17T08:50:03.284Z,19.2
2018-06-17T08:55:02.947Z,18.7
2018-06-17T09:00:02.554Z,18.6
2018-06-17T09:05:03.191Z,18.1
2018-06-17T09:10:02.821Z,18.2
2018-06-17T09:15:02.545Z,18.2
2018-06-17T09:20:03.152Z,18.2
2018-06-17T09:25:02.717Z,18.2
2018-06-17T09:30:03.331Z,18.5
2018-06-17T09:35:02.864Z,18.6
2018-06-17T09:40:02.519Z,18.6
2018-06-17T09:45:03.116Z,18.7
2018-06-17T09:50:02.682Z,19.0
2018-06-17T09:55:03.274Z,19.0
2018-06-17T10:00:02.848Z,19.1
2018-06-17T10:05:02.466Z,18.8
2018-06-17T10:10:03.138Z,18.8
2018-06-17T10:15:02.750Z,19.0
2018-06-17T10:20:03.350Z,19.0
2018-06-17T10:25:02.929Z,18.7
2018-06-17T10:30:02.502Z,18.7
2018-06-17T10:35:03.115Z,18.7
2018-06-17T10:40:02.792Z,18.6
2018-06-17T10:45:03.394Z,18.7
2018-06-17T10:50:02.925Z,19.0
2018-06-17T10:55:02.534Z,19.1
2018-06-17T11:00:03.059Z,19.0
2018-06-17T11:05:02.678Z,19.3
2018-06-17T11:10:03.333Z,20.0
2018-06-17T11:15:02.923Z,19.7
2018-06-17T11:20:02.582Z,19.7
2018-06-17T11:25:03.163Z,19.7
2018-06-17T11:30:02.812Z,20.1
2018-06-17T11:35:02.381Z,20.1
2018-06-17T11:40:03.019Z,20.8
2018-06-17T11:45:02.601Z,20.7
2018-06-17T11:50:03.207Z,20.2
2018-06-17T11:55:02.802Z,20.3
2018-06-17T12:00:02.371Z,19.7
2018-06-17T12:05:02.945Z,19.3
2018-06-17T12:10:02.603Z,19.2
2018-06-17T12:15:03.214Z,19.3
2018-06-17T12:20:02.815Z,19.1
2018-06-17T12:25:02.390Z,19.0
2018-06-17T12:30:02.972Z,19.1
2018-06-17T12:35:02.567Z,19.2
2018-06-17T12:40:03.203Z,19.3
2018-06-17T12:45:02.794Z,19.2
2018-06-17T12:50:02.394Z,19.1
2018-06-17T12:55:03.016Z,19.1
2018-06-17T13:00:02.598Z,19.2
2018-06-17T13:05:03.282Z,20.0
2018-06-17T13:10:02.911Z,20.0
2018-06-17T13:15:02.501Z,20.8
2018-06-17T13:20:03.145Z,20.2
2018-06-17T13:25:02.712Z,20.2
2018-06-17T13:30:03.375Z,20.1
2018-06-17T13:35:02.972Z,20.0
2018-06-17T13:40:02.643Z,19.7
2018-06-17T13:45:03.225Z,19.1
2018-06-17T13:50:02.852Z,19.2
2018-06-17T13:55:02.483Z,19.2
2018-06-17T14:00:03.061Z,19.3
2018-06-17T14:05:02.644Z,19.3
2018-06-17T14:10:03.284Z,19.7
2018-06-17T14:15:02.804Z,19.7
2018-06-17T14:20:03.380Z,20.1
2018-06-17T14:25:02.939Z,19.7
2018-06-17T14:30:02.606Z,19.7
2018-06-17T14:35:03.236Z,19.5
2018-06-17T14:40:02.935Z,19.5
2018-06-17T14:45:02.503Z,19.5
2018-06-17T14:50:03.223Z,19.0
2018-06-17T14:55:03.142Z,19.5
2018-06-17T15:00:03.156Z,20.3
2018-06-17T15:05:02.760Z,20.7
2018-06-17T15:10:02.424Z,20.1
2018-06-17T15:15:03.060Z,20.2
2018-06-17T15:20:03.021Z,20.2
2018-06-17T15:25:02.988Z,20.1
2018-06-17T15:30:02.615Z,20.7
2018-06-17T15:35:03.230Z,20.3
2018-06-17T15:40:02.861Z,19.7
2018-06-17T15:45:02.494Z,20.1
2018-06-17T15:50:03.131Z,21.5
2018-06-17T15:55:02.805Z,21.3
2018-06-17T16:00:02.582Z,20.7
2018-06-17T16:05:03.273Z,20.1
2018-06-17T16:10:02.887Z,19.5
2018-06-17T16:15:02.490Z,19.2
2018-06-17T16:20:03.210Z,19.3
2018-06-17T16:25:02.820Z,19.1
2018-06-17T16:30:02.416Z,19.1
2018-06-17T16:35:03.036Z,19.1
2018-06-17T16:40:02.747Z,18.7
2018-06-17T16:45:02.529Z,18.2
2018-06-17T16:50:03.113Z,17.8
2018-06-17T16:55:02.731Z,17.8
2018-06-17T17:00:03.390Z,17.7
2018-06-17T17:05:03.014Z,17.2
2018-06-17T17:10:02.859Z,17.1
2018-06-17T17:15:02.549Z,16.2
2018-06-17T17:20:03.203Z,15.8
2018-06-17T17:25:02.746Z,15.6
2018-06-17T17:30:03.336Z,15.5
2018-06-17T17:35:02.902Z,15.3
2018-06-17T17:40:02.631Z,15.1
2018-06-17T17:45:03.238Z,15.1
2018-06-17T17:50:02.867Z,15.1
2018-06-17T17:55:02.447Z,15.1
2018-06-17T18:00:03.028Z,15.3
2018-06-17T18:05:02.643Z,15.3
2018-06-17T18:10:03.313Z,15.5
2018-06-17T18:15:02.910Z,15.5
2018-06-17T18:20:02.597Z,15.6
2018-06-17T18:25:03.224Z,15.8
2018-06-17T18:30:02.803Z,15.8
2018-06-17T18:35:02.395Z,15.6
2018-06-17T18:40:03.029Z,15.6
2018-06-17T18:45:02.658Z,15.5
2018-06-17T18:50:03.260Z,15.5
2018-06-17T18:55:02.848Z,15.6
2018-06-17T19:00:02.465Z,15.8
2018-06-17T19:05:03.170Z,15.8
2018-06-17T19:10:02.787Z,15.8
2018-06-17T19:15:02.409Z,15.6
2018-06-17T19:20:02.980Z,15.6
2018-06-17T19:25:02.537Z,15.8
2018-06-17T19:30:03.220Z,15.8
2018-06-17T19:35:02.788Z,15.8
2018-06-17T19:40:02.413Z,15.8
2018-06-17T19:45:03.006Z,15.8
2018-06-17T19:50:02.567Z,15.8
2018-06-17T19:55:03.141Z,15.8
2018-06-17T20:00:02.979Z,15.8
2018-06-17T20:05:02.633Z,15.8
2018-06-17T20:10:03.242Z,15.8
2018-06-17T20:15:02.897Z,15.6
2018-06-17T20:20:02.844Z,15.8
2018-06-17T20:25:02.444Z,15.6
2018-06-17T20:30:03.210Z,15.5
2018-06-17T20:35:02.787Z,15.6
2018-06-17T20:40:02.585Z,15.6
2018-06-17T20:45:03.145Z,15.6
2018-06-17T20:50:02.729Z,15.6
2018-06-17T20:55:03.313Z,15.6
2018-06-17T21:00:02.951Z,15.6
2018-06-17T21:05:02.650Z,15.6
2018-06-17T21:10:03.288Z,15.8
2018-06-17T21:15:02.881Z,15.8
2018-06-17T21:20:02.471Z,15.8
2018-06-17T21:25:03.047Z,15.8
2018-06-17T21:30:02.694Z,15.8
2018-06-17T21:35:03.314Z,15.8
2018-06-17T21:40:02.926Z,15.8
2018-06-17T21:45:02.580Z,15.8
2018-06-17T21:50:03.171Z,15.8
2018-06-17T21:55:02.705Z,16.0
2018-06-17T22:00:03.359Z,15.8
2018-06-17T22:05:02.989Z,15.8
2018-06-17T22:10:02.648Z,16.0
2018-06-17T22:15:03.278Z,15.8
2018-06-17T22:20:02.895Z,15.8
2018-06-17T22:25:02.541Z,16.0
2018-06-17T22:30:03.138Z,15.8
2018-06-17T22:35:02.699Z,15.8
2018-06-17T22:40:03.368Z,15.6
2018-06-17T22:45:02.937Z,15.8
2018-06-17T22:50:02.530Z,15.8
2018-06-17T22:55:03.094Z,15.8
2018-06-17T23:00:02.639Z,15.8
2018-06-17T23:05:03.319Z,15.8
2018-06-17T23:10:02.979Z,15.6
2018-06-17T23:15:02.725Z,15.5
2018-06-17T23:20:03.400Z,15.5
2018-06-17T23:25:02.974Z,15.5
2018-06-17T23:30:02.641Z,15.5
2018-06-17T23:35:03.228Z,15.3
2018-06-17T23:40:02.874Z,15.3
2018-06-17T23:45:02.470Z,15.1
2018-06-17T23:50:03.043Z,15.3
2018-06-17T23:55:02.664Z,15.3
